createdAt,value
2022-08-26T00:01:55.907Z,18.10
2022-08-26T00:04:25.585Z,18.10
2022-08-26T00:06:55.562Z,18.20
2022-08-26T00:09:24.789Z,18.20
2022-08-26T00:11:54.052Z,18.10
2022-08-26T00:14:27.087Z,18.20
2022-08-26T00:16:58.237Z,18.10
2022-08-26T00:19:26.213Z,18.00
2022-08-26T00:21:53.754Z,18.10
2022-08-26T00:24:21.933Z,18.10
2022-08-26T00:26:50.324Z,18.10
2022-08-26T00:29:19.188Z,18.10
2022-08-26T00:31:48.934Z,18.10
2022-08-26T00:34:19.589Z,18.20
2022-08-26T00:36:51.729Z,18.30
2022-08-26T00:39:20.850Z,18.30
2022-08-26T00:41:48.533Z,18.30
2022-08-26T00:44:16.999Z,18.20
2022-08-26T00:46:50.348Z,18.10
2022-08-26T00:49:25.035Z,18.10
2022-08-26T00:51:58.819Z,18.20
2022-08-26T00:54:33.486Z,18.20
2022-08-26T00:57:08.526Z,18.30
2022-08-26T00:59:46.625Z,18.20
2022-08-26T01:02:21.193Z,18.20
2022-08-26T01:04:56.481Z,18.30
2022-08-26T01:07:27.573Z,18.40
2022-08-26T01:10:03.892Z,18.30
2022-08-26T01:12:36.858Z,18.20
2022-08-26T01:15:10.196Z,18.10
2022-08-26T01:17:39.768Z,18.20
2022-08-26T01:20:27.152Z,18.20
2022-08-26T01:23:04.174Z,18.20
2022-08-26T01:25:33.899Z,18.20
2022-08-26T01:28:06.803Z,18.10
2022-08-26T01:30:35.798Z,18.10
2022-08-26T01:33:06.955Z,18.00
2022-08-26T01:35:34.568Z,18.00
2022-08-26T01:38:02.499Z,17.90
2022-08-26T01:40:34.037Z,18.50
2022-08-26T01:43:02.629Z,17.80
2022-08-26T01:45:33.292Z,17.80
2022-08-26T01:48:03.855Z,17.80
2022-08-26T01:50:34.453Z,17.80
2022-08-26T01:53:06.275Z,17.80
2022-08-26T01:55:34.620Z,17.80
2022-08-26T01:58:06.582Z,17.80
2022-08-26T02:00:35.500Z,17.80
2022-08-26T02:03:17.811Z,17.80
2022-08-26T02:05:51.390Z,17.90
2022-08-26T02:08:25.509Z,17.90
2022-08-26T02:10:54.741Z,17.90
2022-08-26T02:13:23.572Z,17.90
2022-08-26T02:15:53.556Z,17.90
2022-08-26T02:18:22.856Z,17.80
2022-08-26T02:20:52.918Z,17.80
2022-08-26T02:23:20.849Z,17.80
2022-08-26T02:26:04.276Z,17.80
2022-08-26T02:28:37.872Z,17.80
2022-08-26T02:31:05.689Z,17.80
2022-08-26T02:33:35.553Z,17.70
2022-08-26T02:36:06.771Z,17.80
2022-08-26T02:38:38.856Z,17.80
2022-08-26T02:41:08.056Z,17.70
2022-08-26T02:43:36.282Z,17.80
2022-08-26T02:46:03.825Z,17.70
2022-08-26T02:48:32.246Z,17.70
2022-08-26T02:51:01.303Z,17.80
2022-08-26T02:53:31.747Z,17.70
2022-08-26T02:55:59.893Z,17.70
2022-08-26T02:58:27.768Z,17.80
2022-08-26T03:00:55.286Z,17.80
2022-08-26T03:03:23.734Z,17.80
2022-08-26T03:05:52.546Z,17.70
2022-08-26T03:08:20.354Z,17.80
2022-08-26T03:10:48.112Z,17.90
2022-08-26T03:13:17.267Z,17.90
2022-08-26T03:15:45.898Z,17.90
2022-08-26T03:18:15.444Z,17.30
2022-08-26T03:20:42.932Z,17.80
2022-08-26T03:23:12.169Z,17.70
2022-08-26T03:25:40.213Z,17.70
2022-08-26T03:28:07.794Z,18.40
2022-08-26T03:30:45.237Z,17.80
2022-08-26T03:33:14.052Z,17.80
2022-08-26T03:35:43.939Z,17.70
2022-08-26T03:38:11.927Z,17.70
2022-08-26T03:40:40.236Z,17.60
2022-08-26T03:43:10.193Z,17.60
2022-08-26T03:45:38.824Z,17.70
2022-08-26T03:48:06.728Z,17.70
2022-08-26T03:50:35.832Z,17.70
2022-08-26T03:53:04.655Z,17.70
2022-08-26T03:55:34.904Z,17.70
2022-08-26T03:58:02.647Z,17.60
2022-08-26T04:00:30.891Z,17.70
2022-08-26T04:02:58.437Z,17.70
2022-08-26T04:05:25.999Z,17.80
2022-08-26T04:07:56.059Z,17.80
2022-08-26T04:10:28.912Z,17.80
2022-08-26T04:12:58.642Z,17.80
2022-08-26T04:15:27.341Z,17.80
2022-08-26T04:17:55.927Z,17.80
2022-08-26T04:20:25.575Z,17.80
2022-08-26T04:22:53.223Z,17.70
2022-08-26T04:25:21.477Z,17.60
2022-08-26T04:27:49.102Z,17.30
2022-08-26T04:30:18.093Z,17.60
2022-08-26T04:32:45.716Z,17.60
2022-08-26T04:35:13.310Z,17.50
2022-08-26T04:37:43.056Z,17.50
2022-08-26T04:40:11.393Z,17.10
2022-08-26T04:42:39.045Z,17.50
2022-08-26T04:45:10.029Z,17.50
2022-08-26T04:47:38.197Z,17.50
2022-08-26T04:50:07.519Z,17.50
2022-08-26T04:52:36.451Z,17.50
2022-08-26T04:55:06.529Z,17.50
2022-08-26T04:57:36.396Z,17.50
2022-08-26T05:00:08.913Z,17.50
2022-08-26T05:02:36.597Z,17.60
2022-08-26T05:05:07.463Z,18.40
2022-08-26T05:07:35.966Z,17.70
2022-08-26T05:10:05.314Z,17.70
2022-08-26T05:12:38.854Z,17.90
2022-08-26T05:15:08.457Z,17.70
2022-08-26T05:17:36.686Z,17.60
2022-08-26T05:20:05.135Z,17.70
2022-08-26T05:22:36.526Z,17.70
2022-08-26T05:25:04.816Z,18.60
2022-08-26T05:27:32.988Z,17.80
2022-08-26T05:30:15.102Z,17.70
2022-08-26T05:32:42.867Z,17.70
2022-08-26T05:35:11.264Z,17.70
2022-08-26T05:37:39.344Z,17.60
2022-08-26T05:40:08.182Z,17.70
2022-08-26T05:42:38.678Z,15.60
2022-08-26T05:45:07.655Z,18.20
2022-08-26T05:47:35.296Z,17.60
2022-08-26T05:50:05.706Z,17.50
2022-08-26T05:52:34.194Z,17.50
2022-08-26T05:55:01.787Z,17.60
2022-08-26T05:57:35.370Z,17.50
2022-08-26T06:00:05.675Z,17.70
2022-08-26T06:02:35.459Z,17.70
2022-08-26T06:05:05.147Z,17.70
2022-08-26T06:07:53.827Z,17.50
2022-08-26T06:10:32.087Z,17.00
2022-08-26T06:13:09.327Z,17.50
2022-08-26T06:15:45.746Z,16.60
2022-08-26T06:18:17.537Z,17.60
2022-08-26T06:20:56.974Z,17.60
2022-08-26T06:23:47.109Z,17.60
2022-08-26T06:26:17.211Z,17.70
2022-08-26T06:28:45.817Z,17.10
2022-08-26T06:31:14.936Z,17.60
2022-08-26T06:33:46.472Z,17.50
2022-08-26T06:36:23.776Z,17.40
2022-08-26T06:38:54.165Z,17.40
2022-08-26T06:41:23.228Z,17.40
2022-08-26T06:43:51.367Z,17.40
2022-08-26T06:46:23.003Z,17.50
2022-08-26T06:48:58.582Z,17.60
2022-08-26T06:51:32.455Z,17.60
2022-08-26T06:54:06.073Z,17.70
2022-08-26T06:56:37.961Z,17.70
2022-08-26T06:59:07.796Z,19.20
2022-08-26T07:01:42.966Z,17.70
2022-08-26T07:04:13.358Z,17.00
2022-08-26T07:06:49.685Z,17.80
2022-08-26T07:09:30.942Z,17.60
2022-08-26T07:12:33.459Z,17.60
2022-08-26T07:15:14.135Z,17.80
2022-08-26T07:17:47.119Z,17.60
2022-08-26T07:20:17.657Z,17.50
2022-08-26T07:22:48.346Z,17.80
2022-08-26T07:25:19.319Z,17.80
2022-08-26T07:35:55.641Z,17.90
2022-08-26T07:38:23.498Z,17.90
2022-08-26T07:40:52.275Z,17.90
2022-08-26T07:43:21.687Z,17.90
2022-08-26T07:45:51.620Z,17.80
2022-08-26T07:48:21.373Z,17.90
2022-08-26T07:50:50.544Z,17.90
2022-08-26T07:53:19.427Z,17.90
2022-08-26T07:55:47.963Z,18.00
2022-08-26T07:58:20.961Z,18.00
2022-08-26T08:00:49.149Z,18.00
2022-08-26T08:03:19.946Z,18.00
2022-08-26T08:05:49.178Z,18.00
2022-08-26T08:08:26.699Z,17.90
2022-08-26T08:10:56.460Z,17.90
2022-08-26T08:13:25.750Z,18.00
2022-08-26T08:15:55.767Z,17.90
2022-08-26T08:18:43.150Z,18.00
2022-08-26T08:21:21.730Z,18.10
2022-08-26T08:23:58.507Z,18.00
2022-08-26T08:26:56.591Z,17.40
2022-08-26T08:29:30.331Z,18.10
2022-08-26T08:31:58.810Z,18.10
2022-08-26T08:34:31.659Z,18.10
2022-08-26T08:37:00.368Z,18.10
2022-08-26T08:39:28.027Z,18.10
2022-08-26T08:42:33.677Z,18.20
2022-08-26T08:45:07.859Z,18.50
2022-08-26T08:47:54.112Z,18.20
2022-08-26T08:50:54.246Z,18.30
2022-08-26T08:53:30.623Z,19.60
2022-08-26T08:56:14.575Z,18.30
2022-08-26T08:59:06.597Z,18.30
2022-08-26T09:01:57.242Z,18.30
2022-08-26T09:04:45.605Z,18.40
2022-08-26T09:07:19.422Z,18.50
2022-08-26T09:09:59.469Z,18.40
2022-08-26T09:12:31.313Z,18.40
2022-08-26T09:15:08.126Z,18.20
2022-08-26T09:18:13.299Z,18.50
2022-08-26T09:21:03.954Z,18.00
2022-08-26T09:23:35.809Z,18.40
2022-08-26T09:26:28.671Z,18.20
2022-08-26T09:29:05.214Z,18.30
2022-08-26T09:31:39.016Z,18.10
2022-08-26T09:34:21.868Z,18.40
2022-08-26T09:36:55.273Z,18.50
2022-08-26T09:39:28.814Z,18.60
2022-08-26T09:42:09.576Z,18.70
2022-08-26T09:45:10.830Z,18.80
2022-08-26T09:47:48.999Z,18.70
2022-08-26T09:50:32.660Z,19.10
2022-08-26T09:53:13.409Z,19.00
2022-08-26T09:55:44.607Z,18.80
2022-08-26T09:58:35.134Z,18.90
2022-08-26T10:01:08.571Z,18.80
2022-08-26T10:03:40.157Z,18.70
2022-08-26T10:06:31.070Z,18.70
2022-08-26T10:09:01.402Z,19.20
2022-08-26T10:11:47.750Z,18.90
2022-08-26T10:14:34.785Z,18.90
2022-08-26T10:17:07.466Z,18.90
2022-08-26T10:19:56.924Z,17.80
2022-08-26T10:22:45.911Z,19.20
2022-08-26T10:25:22.407Z,19.20
2022-08-26T10:28:12.191Z,19.30
2022-08-26T10:31:00.987Z,19.50
2022-08-26T10:33:29.924Z,19.40
2022-08-26T10:36:01.545Z,19.30
2022-08-26T10:38:40.422Z,19.20
2022-08-26T10:41:20.867Z,19.00
2022-08-26T10:44:00.630Z,19.10
2022-08-26T10:46:45.781Z,19.10
2022-08-26T10:49:16.535Z,19.10
2022-08-26T10:52:17.038Z,19.10
2022-08-26T10:54:53.715Z,19.60
2022-08-26T10:57:55.561Z,19.20
2022-08-26T11:00:48.488Z,19.20
2022-08-26T11:03:39.365Z,19.30
2022-08-26T11:06:19.006Z,19.30
2022-08-26T11:08:52.156Z,19.40
2022-08-26T11:11:42.084Z,19.30
2022-08-26T11:14:28.693Z,19.30
2022-08-26T11:16:58.825Z,19.30
2022-08-26T11:19:59.678Z,19.30
2022-08-26T11:22:31.793Z,19.30
2022-08-26T11:24:59.592Z,19.40
2022-08-26T11:27:27.293Z,19.40
2022-08-26T11:30:02.065Z,19.50
2022-08-26T11:32:41.740Z,19.50
2022-08-26T11:35:19.722Z,19.50
2022-08-26T11:37:54.472Z,19.40
2022-08-26T11:40:29.716Z,19.40
2022-08-26T11:43:08.211Z,19.40
2022-08-26T11:45:48.773Z,19.30
2022-08-26T11:48:31.258Z,19.30
2022-08-26T11:51:21.025Z,19.40
2022-08-26T11:53:49.806Z,19.40
2022-08-26T11:56:53.456Z,19.50
2022-08-26T12:02:01.918Z,19.70
2022-08-26T12:04:34.703Z,19.70
2022-08-26T12:07:03.127Z,19.70
2022-08-26T12:09:37.176Z,20.40
2022-08-26T12:12:16.494Z,19.60
2022-08-26T12:14:44.930Z,19.70
2022-08-26T12:17:18.419Z,19.90
2022-08-26T12:19:46.946Z,20.00
2022-08-26T12:22:24.721Z,20.00
2022-08-26T12:25:00.740Z,20.00
2022-08-26T12:27:45.656Z,20.00
2022-08-26T12:30:26.189Z,20.00
2022-08-26T12:33:22.421Z,20.00
2022-08-26T12:35:56.511Z,20.00
2022-08-26T12:38:25.728Z,20.10
2022-08-26T12:40:53.441Z,20.00
2022-08-26T12:43:44.133Z,20.00
2022-08-26T12:46:16.529Z,19.90
2022-08-26T12:48:48.876Z,19.80
2022-08-26T12:51:23.081Z,19.70
2022-08-26T12:53:50.659Z,19.70
2022-08-26T12:56:25.447Z,19.70
2022-08-26T12:59:26.154Z,19.70
2022-08-26T13:01:54.721Z,19.80
2022-08-26T13:04:35.376Z,19.60
2022-08-26T13:07:21.395Z,19.70
2022-08-26T13:09:50.820Z,19.90
2022-08-26T13:12:31.785Z,19.90
2022-08-26T13:15:05.214Z,20.30
2022-08-26T13:17:35.100Z,19.90
2022-08-26T13:20:04.334Z,19.90
2022-08-26T13:22:32.586Z,19.80
2022-08-26T13:25:00.091Z,19.90
2022-08-26T13:27:27.814Z,19.90
2022-08-26T13:29:58.093Z,20.00
2022-08-26T13:32:27.753Z,20.00
2022-08-26T13:34:56.792Z,19.90
2022-08-26T13:37:35.094Z,19.90
2022-08-26T13:40:05.944Z,19.90
2022-08-26T13:42:34.518Z,20.00
2022-08-26T13:45:02.492Z,20.10
2022-08-26T13:47:30.294Z,20.10
2022-08-26T13:49:58.405Z,20.10
2022-08-26T13:52:31.052Z,20.50
2022-08-26T13:55:01.822Z,20.00
2022-08-26T13:57:30.533Z,20.10
2022-08-26T13:59:59.541Z,20.10
2022-08-26T14:02:28.325Z,20.10
2022-08-26T14:04:56.148Z,20.10
2022-08-26T14:07:24.419Z,20.00
2022-08-26T14:09:56.052Z,20.00
2022-08-26T14:12:23.723Z,19.90
2022-08-26T14:14:51.331Z,20.00
2022-08-26T14:17:24.746Z,20.00
2022-08-26T14:19:53.915Z,19.40
2022-08-26T14:22:22.638Z,19.90
2022-08-26T14:24:50.897Z,19.80
2022-08-26T14:27:18.577Z,19.80
2022-08-26T14:29:46.097Z,19.80
2022-08-26T14:32:23.724Z,19.90
2022-08-26T14:34:53.840Z,19.90
2022-08-26T14:37:21.744Z,19.90
2022-08-26T14:39:49.519Z,19.80
2022-08-26T14:42:31.635Z,19.80
2022-08-26T14:45:01.908Z,19.80
2022-08-26T14:47:32.518Z,19.70
2022-08-26T14:50:00.808Z,19.80
2022-08-26T14:52:28.347Z,19.80
2022-08-26T14:54:55.801Z,19.80
2022-08-26T14:57:23.245Z,19.80
2022-08-26T14:59:50.804Z,19.80
2022-08-26T15:02:33.529Z,19.70
2022-08-26T15:05:02.756Z,19.80
2022-08-26T15:07:31.187Z,19.80
2022-08-26T15:09:58.960Z,19.80
2022-08-26T15:12:28.819Z,19.70
2022-08-26T15:14:56.554Z,19.70
2022-08-26T15:17:24.377Z,19.70
2022-08-26T15:19:52.130Z,19.80
2022-08-26T15:22:20.027Z,19.80
2022-08-26T15:24:48.127Z,19.80
2022-08-26T15:27:21.426Z,19.80
2022-08-26T15:29:49.071Z,19.80
2022-08-26T15:32:16.750Z,19.80
2022-08-26T15:34:44.637Z,19.80
2022-08-26T15:37:12.433Z,19.80
2022-08-26T15:39:42.035Z,19.80
2022-08-26T15:42:09.865Z,19.70
2022-08-26T15:44:37.622Z,19.60
2022-08-26T15:47:05.881Z,19.50
2022-08-26T15:49:33.631Z,19.60
2022-08-26T15:52:04.225Z,19.60
2022-08-26T15:54:33.223Z,19.70
2022-08-26T15:57:03.632Z,19.60
2022-08-26T15:59:31.773Z,19.60
2022-08-26T16:02:00.729Z,19.60
2022-08-26T16:04:28.873Z,19.50
2022-08-26T16:06:56.805Z,20.70
2022-08-26T16:09:27.714Z,19.40
2022-08-26T16:11:56.794Z,19.40
2022-08-26T16:14:25.356Z,19.50
2022-08-26T16:16:54.068Z,19.60
2022-08-26T16:19:22.394Z,19.50
2022-08-26T16:21:51.960Z,19.50
2022-08-26T16:24:25.918Z,19.50
2022-08-26T16:26:55.389Z,19.40
2022-08-26T16:29:23.402Z,19.30
2022-08-26T16:31:53.450Z,19.30
2022-08-26T16:34:22.190Z,19.40
2022-08-26T16:36:50.320Z,19.40
2022-08-26T16:39:17.882Z,19.40
2022-08-26T16:41:45.505Z,19.30
2022-08-26T16:44:13.236Z,19.20
2022-08-26T16:46:41.355Z,19.20
2022-08-26T16:49:09.019Z,19.20
2022-08-26T16:51:38.329Z,19.30
2022-08-26T16:54:07.755Z,19.40
2022-08-26T16:56:35.795Z,19.40
2022-08-26T16:59:11.773Z,19.40
2022-08-26T17:01:39.514Z,19.40
2022-08-26T17:04:07.168Z,19.30
2022-08-26T17:06:34.922Z,19.30
2022-08-26T17:09:02.467Z,19.30
2022-08-26T17:11:30.235Z,19.20
2022-08-26T17:13:58.231Z,19.20
2022-08-26T17:16:27.014Z,19.10
2022-08-26T17:18:59.454Z,19.10
2022-08-26T17:21:28.120Z,19.00
2022-08-26T17:23:56.546Z,19.00
2022-08-26T17:26:24.143Z,19.10
2022-08-26T17:28:51.891Z,19.10
2022-08-26T17:31:20.046Z,18.90
2022-08-26T17:33:53.228Z,19.00
2022-08-26T17:36:23.236Z,18.90
2022-08-26T17:38:57.411Z,18.90
2022-08-26T17:41:27.070Z,18.90
2022-08-26T17:43:54.975Z,18.90
2022-08-26T17:46:23.427Z,18.90
2022-08-26T17:48:51.074Z,18.80
2022-08-26T17:51:20.035Z,18.80
2022-08-26T17:53:48.833Z,18.80
2022-08-26T17:56:19.213Z,18.70
2022-08-26T17:58:51.096Z,18.60
2022-08-26T18:01:20.806Z,18.50
2022-08-26T18:03:49.285Z,18.50
2022-08-26T18:06:17.104Z,18.40
2022-08-26T18:08:45.354Z,18.40
2022-08-26T18:11:16.368Z,18.40
2022-08-26T18:13:46.984Z,18.40
2022-08-26T18:16:18.113Z,18.30
2022-08-26T18:18:46.805Z,18.30
2022-08-26T18:21:18.701Z,18.30
2022-08-26T18:23:47.525Z,18.20
2022-08-26T18:26:27.421Z,18.10
2022-08-26T18:28:55.590Z,18.10
2022-08-26T18:31:23.779Z,18.10
2022-08-26T18:33:51.440Z,18.00
2022-08-26T18:36:22.985Z,18.00
2022-08-26T18:38:51.386Z,17.90
2022-08-26T18:41:20.995Z,17.40
2022-08-26T18:43:50.642Z,17.90
2022-08-26T18:46:19.566Z,17.80
2022-08-26T18:48:51.072Z,17.80
2022-08-26T18:51:27.508Z,17.80
2022-08-26T18:53:55.264Z,17.80
2022-08-26T18:56:23.138Z,17.80
2022-08-26T18:58:51.026Z,17.70
2022-08-26T19:01:23.261Z,17.70
2022-08-26T19:03:53.672Z,17.70
2022-08-26T19:06:23.819Z,17.70
2022-08-26T19:08:51.402Z,17.60
2022-08-26T19:11:31.166Z,17.60
2022-08-26T19:14:00.630Z,17.60
2022-08-26T19:16:29.107Z,17.50
2022-08-26T19:18:58.384Z,17.50
2022-08-26T19:21:26.094Z,17.40
2022-08-26T19:23:58.169Z,17.70
2022-08-26T19:26:27.670Z,17.30
2022-08-26T19:28:55.150Z,17.20
2022-08-26T19:31:23.141Z,17.20
2022-08-26T19:33:50.928Z,17.20
2022-08-26T19:36:25.696Z,17.20
2022-08-26T19:38:53.887Z,17.20
2022-08-26T19:41:36.701Z,17.20
2022-08-26T19:44:09.977Z,17.20
2022-08-26T19:49:07.242Z,17.20
2022-08-26T19:51:35.886Z,17.20
2022-08-26T19:54:03.566Z,17.20
2022-08-26T19:56:31.493Z,17.10
2022-08-26T19:58:59.113Z,17.10
2022-08-26T20:01:26.684Z,17.20
2022-08-26T20:06:26.857Z,17.10
2022-08-26T20:08:56.395Z,17.10
2022-08-26T20:11:24.394Z,17.10
2022-08-26T20:13:52.132Z,17.00
2022-08-26T20:16:19.752Z,16.90
2022-08-26T20:19:05.923Z,16.80
2022-08-26T20:21:38.307Z,16.70
2022-08-26T20:24:12.914Z,15.60
2022-08-26T20:26:42.815Z,16.60
2022-08-26T20:29:12.505Z,16.50
2022-08-26T20:31:41.074Z,16.50
2022-08-26T20:34:08.666Z,16.50
2022-08-26T20:36:39.406Z,16.50
2022-08-26T20:39:07.779Z,15.90
2022-08-26T20:41:36.122Z,16.50
2022-08-26T20:44:03.959Z,16.50
2022-08-26T20:46:32.097Z,16.40
2022-08-26T20:48:59.601Z,16.50
2022-08-26T20:51:28.367Z,16.40
2022-08-26T20:53:56.000Z,16.40
2022-08-26T20:56:24.950Z,16.30
2022-08-26T20:58:54.698Z,16.30
2022-08-26T21:01:28.616Z,16.30
2022-08-26T21:03:57.214Z,16.30
2022-08-26T21:06:25.479Z,16.40
2022-08-26T21:08:54.404Z,16.40
2022-08-26T21:11:23.147Z,16.40
2022-08-26T21:14:10.739Z,16.50
2022-08-26T21:16:44.298Z,16.50
2022-08-26T21:19:14.642Z,16.50
2022-08-26T21:21:42.680Z,16.50
2022-08-26T21:24:10.352Z,16.50
2022-08-26T21:26:38.334Z,16.50
2022-08-26T21:29:08.116Z,16.50
2022-08-26T21:31:36.639Z,16.50
2022-08-26T21:34:04.255Z,16.40
2022-08-26T21:36:32.219Z,16.30
2022-08-26T21:39:01.001Z,16.40
2022-08-26T21:41:29.118Z,16.50
2022-08-26T21:43:59.793Z,16.50
2022-08-26T21:46:29.875Z,16.60
2022-08-26T21:49:01.792Z,16.60
2022-08-26T21:51:32.423Z,16.60
2022-08-26T21:54:01.830Z,16.60
2022-08-26T21:56:31.793Z,16.60
2022-08-26T21:58:59.922Z,16.60
2022-08-26T22:01:32.064Z,16.60
2022-08-26T22:03:59.853Z,16.60
2022-08-26T22:06:29.888Z,16.50
2022-08-26T22:08:58.274Z,16.50
2022-08-26T22:11:27.646Z,16.50
2022-08-26T22:13:57.223Z,17.20
2022-08-26T22:16:28.988Z,16.30
2022-08-26T22:18:56.634Z,16.30
2022-08-26T22:21:28.226Z,16.30
2022-08-26T22:23:58.244Z,16.20
2022-08-26T22:26:32.364Z,16.20
2022-08-26T22:29:01.707Z,16.10
2022-08-26T22:31:37.555Z,16.10
2022-08-26T22:34:13.349Z,16.10
2022-08-26T22:36:43.930Z,16.10
2022-08-26T22:39:17.180Z,16.10
2022-08-26T22:41:45.502Z,16.00
2022-08-26T22:44:13.144Z,16.00
2022-08-26T22:46:42.186Z,16.10
2022-08-26T22:49:11.576Z,16.00
2022-08-26T22:51:39.507Z,16.00
2022-08-26T22:54:07.267Z,16.00
2022-08-26T22:56:35.162Z,16.00
2022-08-26T22:59:03.271Z,15.90
2022-08-26T23:01:31.572Z,15.90
2022-08-26T23:03:59.179Z,15.90
2022-08-26T23:06:27.015Z,16.00
2022-08-26T23:08:54.569Z,15.90
2022-08-26T23:11:22.284Z,15.90
2022-08-26T23:13:49.984Z,15.70
2022-08-26T23:16:18.062Z,15.90
2022-08-26T23:18:45.613Z,15.50
2022-08-26T23:21:13.404Z,15.30
2022-08-26T23:23:40.904Z,15.40
2022-08-26T23:26:08.936Z,15.40
2022-08-26T23:28:38.339Z,15.40
2022-08-26T23:31:07.061Z,15.40
2022-08-26T23:33:53.674Z,15.20
2022-08-26T23:36:22.883Z,15.20
2022-08-26T23:38:52.807Z,15.30
2022-08-26T23:41:22.998Z,15.30
2022-08-26T23:43:51.750Z,15.40
2022-08-26T23:46:20.535Z,15.40
2022-08-26T23:48:48.073Z,15.40
2022-08-26T23:51:34.608Z,15.40
2022-08-26T23:54:02.692Z,15.40
2022-08-26T23:56:30.429Z,15.40
2022-08-26T23:58:58.100Z,15.40
